sensor_id;sensor_type;location;lat;lon;timestamp;temperature;humidity
14182;DHT22;7171;50.936;6.764;2023-02-28T00:00:07;2.50;99.90
14182;DHT22;7171;50.936;6.764;2023-02-28T00:02:35;2.60;99.90
14182;DHT22;7171;50.936;6.764;2023-02-28T00:07:32;2.50;99.90
14182;DHT22;7171;50.936;6.764;2023-02-28T00:09:59;2.50;99.90
14182;DHT22;7171;50.936;6.764;2023-02-28T00:12:26;2.50;99.90
14182;DHT22;7171;50.936;6.764;2023-02-28T00:14:53;2.50;99.90
14182;DHT22;7171;50.936;6.764;2023-02-28T00:17:20;2.50;99.90
14182;DHT22;7171;50.936;6.764;2023-02-28T00:19:47;2.50;99.90
14182;DHT22;7171;50.936;6.764;2023-02-28T00:22:17;2.50;99.90
14182;DHT22;7171;50.936;6.764;2023-02-28T00:24:43;2.50;99.90
14182;DHT22;7171;50.936;6.764;2023-02-28T00:27:10;2.40;99.90
14182;DHT22;7171;50.936;6.764;2023-02-28T00:34:33;2.40;99.90
14182;DHT22;7171;50.936;6.764;2023-02-28T00:37:04;2.60;99.90
14182;DHT22;7171;50.936;6.764;2023-02-28T00:51:57;2.40;99.90
14182;DHT22;7171;50.936;6.764;2023-02-28T00:54:25;2.40;99.90
14182;DHT22;7171;50.936;6.764;2023-02-28T00:56:53;2.50;99.90
14182;DHT22;7171;50.936;6.764;2023-02-28T00:59:19;2.40;99.90
14182;DHT22;7171;50.936;6.764;2023-02-28T01:01:47;2.40;99.90
14182;DHT22;7171;50.936;6.764;2023-02-28T01:04:14;2.40;99.90
14182;DHT22;7171;50.936;6.764;2023-02-28T01:09:08;2.30;99.90
14182;DHT22;7171;50.936;6.764;2023-02-28T01:11:35;2.40;99.90
14182;DHT22;7171;50.936;6.764;2023-02-28T01:14:03;2.40;99.90
14182;DHT22;7171;50.936;6.764;2023-02-28T01:16:30;2.40;99.90
14182;DHT22;7171;50.936;6.764;2023-02-28T01:18:57;2.40;99.90
14182;DHT22;7171;50.936;6.764;2023-02-28T01:21:24;2.40;99.90
14182;DHT22;7171;50.936;6.764;2023-02-28T01:23:51;2.30;99.90
14182;DHT22;7171;50.936;6.764;2023-02-28T01:26:19;2.30;99.90
14182;DHT22;7171;50.936;6.764;2023-02-28T01:28:46;2.30;99.90
14182;DHT22;7171;50.936;6.764;2023-02-28T01:31:14;2.30;99.90
14182;DHT22;7171;50.936;6.764;2023-02-28T01:33:41;2.30;99.90
14182;DHT22;7171;50.936;6.764;2023-02-28T01:36:11;2.30;99.90
14182;DHT22;7171;50.936;6.764;2023-02-28T01:38:38;2.30;99.90
14182;DHT22;7171;50.936;6.764;2023-02-28T01:41:06;2.30;99.90
14182;DHT22;7171;50.936;6.764;2023-02-28T01:43:53;2.30;99.90
14182;DHT22;7171;50.936;6.764;2023-02-28T01:46:21;2.30;99.90
14182;DHT22;7171;50.936;6.764;2023-02-28T01:51:22;2.70;99.90
14182;DHT22;7171;50.936;6.764;2023-02-28T01:53:52;2.30;99.90
14182;DHT22;7171;50.936;6.764;2023-02-28T04:02:41;2.00;99.90
14182;DHT22;7171;50.936;6.764;2023-02-28T04:05:08;2.00;99.90
14182;DHT22;7171;50.936;6.764;2023-02-28T04:07:35;2.00;99.90
14182;DHT22;7171;50.936;6.764;2023-02-28T04:10:02;1.90;99.90
14182;DHT22;7171;50.936;6.764;2023-02-28T04:12:31;1.90;99.90
14182;DHT22;7171;50.936;6.764;2023-02-28T04:14:57;1.80;99.90
14182;DHT22;7171;50.936;6.764;2023-02-28T04:17:24;1.80;99.90
14182;DHT22;7171;50.936;6.764;2023-02-28T04:19:51;1.80;99.90
14182;DHT22;7171;50.936;6.764;2023-02-28T04:22:19;1.80;99.90
14182;DHT22;7171;50.936;6.764;2023-02-28T04:24:46;1.80;99.90
14182;DHT22;7171;50.936;6.764;2023-02-28T04:27:12;1.80;99.90
14182;DHT22;7171;50.936;6.764;2023-02-28T04:29:42;1.80;99.90
14182;DHT22;7171;50.936;6.764;2023-02-28T04:32:10;1.80;99.90
14182;DHT22;7171;50.936;6.764;2023-02-28T04:34:37;1.80;99.90
14182;DHT22;7171;50.936;6.764;2023-02-28T04:37:03;1.80;99.90
14182;DHT22;7171;50.936;6.764;2023-02-28T04:39:34;1.70;99.90
14182;DHT22;7171;50.936;6.764;2023-02-28T04:42:00;1.70;99.90
14182;DHT22;7171;50.936;6.764;2023-02-28T04:44:27;1.60;99.90
14182;DHT22;7171;50.936;6.764;2023-02-28T04:46:55;1.60;99.90
14182;DHT22;7171;50.936;6.764;2023-02-28T04:49:22;1.50;99.90
14182;DHT22;7171;50.936;6.764;2023-02-28T04:51:49;1.30;99.90
14182;DHT22;7171;50.936;6.764;2023-02-28T04:54:16;1.40;99.90
14182;DHT22;7171;50.936;6.764;2023-02-28T04:56:43;1.30;99.90
14182;DHT22;7171;50.936;6.764;2023-02-28T04:59:10;1.20;99.90
14182;DHT22;7171;50.936;6.764;2023-02-28T05:01:36;1.20;99.90
14182;DHT22;7171;50.936;6.764;2023-02-28T05:04:04;1.20;99.90
14182;DHT22;7171;50.936;6.764;2023-02-28T05:06:32;1.10;99.90
14182;DHT22;7171;50.936;6.764;2023-02-28T05:09:00;1.10;99.90
14182;DHT22;7171;50.936;6.764;2023-02-28T05:11:28;1.10;99.90
14182;DHT22;7171;50.936;6.764;2023-02-28T05:13:59;1.00;99.90
14182;DHT22;7171;50.936;6.764;2023-02-28T05:16:25;1.00;99.90
14182;DHT22;7171;50.936;6.764;2023-02-28T05:18:52;1.00;99.90
14182;DHT22;7171;50.936;6.764;2023-02-28T05:21:27;0.90;99.90
14182;DHT22;7171;50.936;6.764;2023-02-28T05:23:54;0.90;99.90
14182;DHT22;7171;50.936;6.764;2023-02-28T05:26:21;0.90;99.90
14182;DHT22;7171;50.936;6.764;2023-02-28T05:28:48;0.90;99.90
14182;DHT22;7171;50.936;6.764;2023-02-28T05:31:15;0.90;99.90
14182;DHT22;7171;50.936;6.764;2023-02-28T05:33:41;0.90;99.90
14182;DHT22;7171;50.936;6.764;2023-02-28T05:36:08;0.90;99.90
14182;DHT22;7171;50.936;6.764;2023-02-28T05:38:37;0.90;99.90
14182;DHT22;7171;50.936;6.764;2023-02-28T05:41:06;0.90;99.90
14182;DHT22;7171;50.936;6.764;2023-02-28T05:43:33;1.00;99.90
14182;DHT22;7171;50.936;6.764;2023-02-28T05:46:02;0.90;99.90
14182;DHT22;7171;50.936;6.764;2023-02-28T05:48:29;0.90;99.90
14182;DHT22;7171;50.936;6.764;2023-02-28T05:50:57;0.90;99.90
14182;DHT22;7171;50.936;6.764;2023-02-28T05:53:24;0.90;99.90
14182;DHT22;7171;50.936;6.764;2023-02-28T05:55:53;0.90;99.90
14182;DHT22;7171;50.936;6.764;2023-02-28T05:58:19;0.90;99.90
14182;DHT22;7171;50.936;6.764;2023-02-28T06:00:46;0.90;99.90
14182;DHT22;7171;50.936;6.764;2023-02-28T06:03:13;0.90;99.90
14182;DHT22;7171;50.936;6.764;2023-02-28T06:05:39;0.80;99.90
14182;DHT22;7171;50.936;6.764;2023-02-28T06:08:06;0.80;99.90
14182;DHT22;7171;50.936;6.764;2023-02-28T06:10:33;0.80;99.90
14182;DHT22;7171;50.936;6.764;2023-02-28T06:13:02;0.80;99.90
14182;DHT22;7171;50.936;6.764;2023-02-28T06:15:29;0.80;99.90
14182;DHT22;7171;50.936;6.764;2023-02-28T06:17:56;0.80;99.90
14182;DHT22;7171;50.936;6.764;2023-02-28T06:20:24;0.70;99.90
14182;DHT22;7171;50.936;6.764;2023-02-28T06:22:54;0.70;99.90
14182;DHT22;7171;50.936;6.764;2023-02-28T06:25:21;0.70;99.90
14182;DHT22;7171;50.936;6.764;2023-02-28T06:27:48;0.70;99.90
14182;DHT22;7171;50.936;6.764;2023-02-28T06:30:16;0.70;99.90
14182;DHT22;7171;50.936;6.764;2023-02-28T06:32:43;0.70;99.90
14182;DHT22;7171;50.936;6.764;2023-02-28T06:35:10;0.70;99.90
14182;DHT22;7171;50.936;6.764;2023-02-28T06:37:36;0.70;99.90
14182;DHT22;7171;50.936;6.764;2023-02-28T06:40:04;0.70;99.90
14182;DHT22;7171;50.936;6.764;2023-02-28T06:42:32;0.70;99.90
14182;DHT22;7171;50.936;6.764;2023-02-28T06:44:58;0.70;99.90
14182;DHT22;7171;50.936;6.764;2023-02-28T06:47:27;0.70;99.90
14182;DHT22;7171;50.936;6.764;2023-02-28T06:49:53;0.70;99.90
14182;DHT22;7171;50.936;6.764;2023-02-28T06:52:20;0.70;99.90
14182;DHT22;7171;50.936;6.764;2023-02-28T06:54:47;0.60;99.90
14182;DHT22;7171;50.936;6.764;2023-02-28T06:57:25;0.70;99.90
14182;DHT22;7171;50.936;6.764;2023-02-28T06:59:51;0.70;99.90
14182;DHT22;7171;50.936;6.764;2023-02-28T07:02:18;0.70;99.90
14182;DHT22;7171;50.936;6.764;2023-02-28T07:04:46;0.70;99.90
14182;DHT22;7171;50.936;6.764;2023-02-28T07:07:13;0.70;99.90
14182;DHT22;7171;50.936;6.764;2023-02-28T07:09:39;0.70;99.90
14182;DHT22;7171;50.936;6.764;2023-02-28T07:12:06;0.80;99.90
14182;DHT22;7171;50.936;6.764;2023-02-28T07:14:33;0.80;99.90
14182;DHT22;7171;50.936;6.764;2023-02-28T07:17:00;0.80;99.90
14182;DHT22;7171;50.936;6.764;2023-02-28T07:19:26;0.90;99.90
14182;DHT22;7171;50.936;6.764;2023-02-28T07:21:54;0.90;99.90
14182;DHT22;7171;50.936;6.764;2023-02-28T07:24:21;0.90;99.90
14182;DHT22;7171;50.936;6.764;2023-02-28T07:26:51;0.90;99.90
14182;DHT22;7171;50.936;6.764;2023-02-28T07:29:17;0.90;99.90
14182;DHT22;7171;50.936;6.764;2023-02-28T07:31:44;0.90;99.90
14182;DHT22;7171;50.936;6.764;2023-02-28T07:34:11;1.00;99.90
14182;DHT22;7171;50.936;6.764;2023-02-28T07:36:38;1.00;99.90
14182;DHT22;7171;50.936;6.764;2023-02-28T07:39:06;1.00;99.90
14182;DHT22;7171;50.936;6.764;2023-02-28T07:41:34;1.00;99.90
14182;DHT22;7171;50.936;6.764;2023-02-28T07:44:04;1.10;99.90
14182;DHT22;7171;50.936;6.764;2023-02-28T07:46:32;1.10;99.90
14182;DHT22;7171;50.936;6.764;2023-02-28T07:49:00;1.20;99.90
14182;DHT22;7171;50.936;6.764;2023-02-28T07:51:28;1.20;99.90
14182;DHT22;7171;50.936;6.764;2023-02-28T07:53:55;1.30;99.90
14182;DHT22;7171;50.936;6.764;2023-02-28T07:56:23;1.40;99.90
14182;DHT22;7171;50.936;6.764;2023-02-28T07:58:50;1.50;99.90
14182;DHT22;7171;50.936;6.764;2023-02-28T08:01:16;1.60;99.90
14182;DHT22;7171;50.936;6.764;2023-02-28T08:03:44;1.70;99.90
14182;DHT22;7171;50.936;6.764;2023-02-28T08:06:16;1.80;99.90
14182;DHT22;7171;50.936;6.764;2023-02-28T08:08:43;1.80;99.90
14182;DHT22;7171;50.936;6.764;2023-02-28T08:11:09;1.90;99.90
14182;DHT22;7171;50.936;6.764;2023-02-28T08:13:38;2.00;99.90
14182;DHT22;7171;50.936;6.764;2023-02-28T08:16:05;2.10;99.90
14182;DHT22;7171;50.936;6.764;2023-02-28T08:18:32;2.10;99.90
14182;DHT22;7171;50.936;6.764;2023-02-28T08:20:59;2.20;99.90
14182;DHT22;7171;50.936;6.764;2023-02-28T08:23:25;2.30;99.90
14182;DHT22;7171;50.936;6.764;2023-02-28T08:25:55;2.30;99.90
14182;DHT22;7171;50.936;6.764;2023-02-28T08:28:22;2.40;99.90
14182;DHT22;7171;50.936;6.764;2023-02-28T08:30:50;2.50;99.90
14182;DHT22;7171;50.936;6.764;2023-02-28T08:33:17;2.50;99.90
14182;DHT22;7171;50.936;6.764;2023-02-28T08:35:43;2.60;99.90
14182;DHT22;7171;50.936;6.764;2023-02-28T08:38:10;2.70;99.90
14182;DHT22;7171;50.936;6.764;2023-02-28T08:40:37;2.70;99.90
14182;DHT22;7171;50.936;6.764;2023-02-28T08:43:04;2.80;99.90
14182;DHT22;7171;50.936;6.764;2023-02-28T08:45:30;2.80;99.90
14182;DHT22;7171;50.936;6.764;2023-02-28T08:47:58;2.90;99.90
14182;DHT22;7171;50.936;6.764;2023-02-28T08:50:25;2.90;99.90
14182;DHT22;7171;50.936;6.764;2023-02-28T08:52:52;2.90;99.90
14182;DHT22;7171;50.936;6.764;2023-02-28T08:55:18;3.00;99.90
14182;DHT22;7171;50.936;6.764;2023-02-28T08:57:45;3.00;99.90
14182;DHT22;7171;50.936;6.764;2023-02-28T09:00:13;3.10;99.80
14182;DHT22;7171;50.936;6.764;2023-02-28T09:02:40;3.10;99.90
14182;DHT22;7171;50.936;6.764;2023-02-28T09:05:10;3.20;99.90
14182;DHT22;7171;50.936;6.764;2023-02-28T09:07:36;3.20;99.90
14182;DHT22;7171;50.936;6.764;2023-02-28T09:12:34;3.30;99.90
14182;DHT22;7171;50.936;6.764;2023-02-28T09:15:01;3.30;99.60
14182;DHT22;7171;50.936;6.764;2023-02-28T09:17:28;3.50;99.90
14182;DHT22;7171;50.936;6.764;2023-02-28T09:19:55;3.40;99.80
14182;DHT22;7171;50.936;6.764;2023-02-28T09:22:23;3.40;99.90
14182;DHT22;7171;50.936;6.764;2023-02-28T09:24:50;3.50;99.30
14182;DHT22;7171;50.936;6.764;2023-02-28T09:27:17;3.60;99.30
14182;DHT22;7171;50.936;6.764;2023-02-28T09:29:43;3.60;99.30
14182;DHT22;7171;50.936;6.764;2023-02-28T09:32:10;3.70;99.10
14182;DHT22;7171;50.936;6.764;2023-02-28T09:37:04;3.40;99.90
14182;DHT22;7171;50.936;6.764;2023-02-28T09:39:32;4.00;99.10
14182;DHT22;7171;50.936;6.764;2023-02-28T09:59:49;4.50;99.90
14182;DHT22;7171;50.936;6.764;2023-02-28T10:02:28;4.60;99.90
14182;DHT22;7171;50.936;6.764;2023-02-28T10:05:05;4.50;98.40
14182;DHT22;7171;50.936;6.764;2023-02-28T10:07:46;4.50;98.50
14182;DHT22;7171;50.936;6.764;2023-02-28T10:10:22;4.60;98.30
14182;DHT22;7171;50.936;6.764;2023-02-28T10:12:54;4.60;98.40
14182;DHT22;7171;50.936;6.764;2023-02-28T10:15:23;4.70;98.60
14182;DHT22;7171;50.936;6.764;2023-02-28T10:17:54;4.70;98.70
14182;DHT22;7171;50.936;6.764;2023-02-28T10:25:29;4.80;99.90
14182;DHT22;7171;50.936;6.764;2023-02-28T10:28:04;4.80;99.90
14182;DHT22;7171;50.936;6.764;2023-02-28T10:30:31;4.80;99.90
14182;DHT22;7171;50.936;6.764;2023-02-28T10:32:58;4.80;99.90
14182;DHT22;7171;50.936;6.764;2023-02-28T10:35:26;4.80;99.90
14182;DHT22;7171;50.936;6.764;2023-02-28T10:37:55;4.80;99.90
14182;DHT22;7171;50.936;6.764;2023-02-28T10:40:30;4.80;99.90
14182;DHT22;7171;50.936;6.764;2023-02-28T10:43:00;4.80;99.90
14182;DHT22;7171;50.936;6.764;2023-02-28T10:45:29;4.80;99.90
14182;DHT22;7171;50.936;6.764;2023-02-28T10:47:58;4.90;99.90
14182;DHT22;7171;50.936;6.764;2023-02-28T11:33:23;5.50;99.90
14182;DHT22;7171;50.936;6.764;2023-02-28T11:35:51;5.50;99.90
14182;DHT22;7171;50.936;6.764;2023-02-28T11:38:18;5.50;99.90
14182;DHT22;7171;50.936;6.764;2023-02-28T11:40:49;5.50;99.90
14182;DHT22;7171;50.936;6.764;2023-02-28T11:43:28;5.50;99.90
14182;DHT22;7171;50.936;6.764;2023-02-28T11:46:10;5.50;99.90
14182;DHT22;7171;50.936;6.764;2023-02-28T11:48:45;5.50;99.90
14182;DHT22;7171;50.936;6.764;2023-02-28T11:51:19;5.50;99.90
14182;DHT22;7171;50.936;6.764;2023-02-28T11:54:03;5.50;99.90
14182;DHT22;7171;50.936;6.764;2023-02-28T11:56:38;5.50;99.90
14182;DHT22;7171;50.936;6.764;2023-02-28T11:59:20;5.40;99.90
14182;DHT22;7171;50.936;6.764;2023-02-28T12:05:17;5.50;99.90
14182;DHT22;7171;50.936;6.764;2023-02-28T12:07:55;5.50;99.90
14182;DHT22;7171;50.936;6.764;2023-02-28T12:10:24;5.40;99.90
14182;DHT22;7171;50.936;6.764;2023-02-28T12:13:03;5.40;99.90
14182;DHT22;7171;50.936;6.764;2023-02-28T12:15:58;5.40;99.90
14182;DHT22;7171;50.936;6.764;2023-02-28T12:18:44;5.40;99.90
14182;DHT22;7171;50.936;6.764;2023-02-28T12:21:24;5.40;99.90
14182;DHT22;7171;50.936;6.764;2023-02-28T12:24:21;5.30;99.90
14182;DHT22;7171;50.936;6.764;2023-02-28T12:26:55;5.30;99.90
14182;DHT22;7171;50.936;6.764;2023-02-28T12:29:26;5.20;99.90
14182;DHT22;7171;50.936;6.764;2023-02-28T12:31:58;5.30;99.90
14182;DHT22;7171;50.936;6.764;2023-02-28T12:34:31;5.30;99.90
14182;DHT22;7171;50.936;6.764;2023-02-28T12:37:03;5.30;99.90
14182;DHT22;7171;50.936;6.764;2023-02-28T12:39:35;5.40;99.90
14182;DHT22;7171;50.936;6.764;2023-02-28T12:42:07;5.40;99.90
14182;DHT22;7171;50.936;6.764;2023-02-28T12:44:42;5.50;99.90
14182;DHT22;7171;50.936;6.764;2023-02-28T12:47:14;5.50;99.90
14182;DHT22;7171;50.936;6.764;2023-02-28T12:49:45;5.60;99.90
14182;DHT22;7171;50.936;6.764;2023-02-28T12:52:18;5.60;99.90
14182;DHT22;7171;50.936;6.764;2023-02-28T12:54:50;5.60;99.90
14182;DHT22;7171;50.936;6.764;2023-02-28T12:57:22;5.70;99.90
14182;DHT22;7171;50.936;6.764;2023-02-28T12:59:54;5.60;99.90
14182;DHT22;7171;50.936;6.764;2023-02-28T13:02:33;5.70;99.90
14182;DHT22;7171;50.936;6.764;2023-02-28T13:05:24;5.70;99.90
14182;DHT22;7171;50.936;6.764;2023-02-28T13:08:20;5.70;99.90
14182;DHT22;7171;50.936;6.764;2023-02-28T13:10:51;5.80;99.30
14182;DHT22;7171;50.936;6.764;2023-02-28T13:13:22;5.80;99.90
14182;DHT22;7171;50.936;6.764;2023-02-28T13:16:04;5.90;99.90
14182;DHT22;7171;50.936;6.764;2023-02-28T13:18:34;5.90;99.90
14182;DHT22;7171;50.936;6.764;2023-02-28T13:21:03;6.00;96.70
14182;DHT22;7171;50.936;6.764;2023-02-28T13:23:52;6.00;96.70
14182;DHT22;7171;50.936;6.764;2023-02-28T13:26:29;6.10;96.80
14182;DHT22;7171;50.936;6.764;2023-02-28T13:29:28;6.10;96.80
14182;DHT22;7171;50.936;6.764;2023-02-28T13:32:19;6.20;96.70
14182;DHT22;7171;50.936;6.764;2023-02-28T13:37:48;6.30;97.10
14182;DHT22;7171;50.936;6.764;2023-02-28T13:40:30;6.40;96.80
14182;DHT22;7171;50.936;6.764;2023-02-28T13:43:02;6.40;98.40
14182;DHT22;7171;50.936;6.764;2023-02-28T13:45:29;6.40;97.20
14182;DHT22;7171;50.936;6.764;2023-02-28T13:48:03;6.40;97.00
14182;DHT22;7171;50.936;6.764;2023-02-28T13:50:34;6.40;97.50
14182;DHT22;7171;50.936;6.764;2023-02-28T13:53:30;6.70;97.50
14182;DHT22;7171;50.936;6.764;2023-02-28T13:56:04;6.50;97.10
14182;DHT22;7171;50.936;6.764;2023-02-28T13:58:44;6.50;96.70
14182;DHT22;7171;50.936;6.764;2023-02-28T14:01:27;6.60;96.70
14182;DHT22;7171;50.936;6.764;2023-02-28T14:04:12;6.60;99.90
14182;DHT22;7171;50.936;6.764;2023-02-28T14:06:47;6.60;97.50
14182;DHT22;7171;50.936;6.764;2023-02-28T14:09:23;6.70;97.40
14182;DHT22;7171;50.936;6.764;2023-02-28T14:11:52;6.70;96.40
14182;DHT22;7171;50.936;6.764;2023-02-28T14:14:53;6.70;96.30
14182;DHT22;7171;50.936;6.764;2023-02-28T14:17:20;6.70;96.30
14182;DHT22;7171;50.936;6.764;2023-02-28T14:19:47;6.70;94.40
14182;DHT22;7171;50.936;6.764;2023-02-28T14:22:32;6.70;95.20
14182;DHT22;7171;50.936;6.764;2023-02-28T14:25:18;6.70;95.30
14182;DHT22;7171;50.936;6.764;2023-02-28T14:27:57;6.70;95.50
14182;DHT22;7171;50.936;6.764;2023-02-28T14:30:51;6.70;96.50
14182;DHT22;7171;50.936;6.764;2023-02-28T14:33:57;6.70;98.30
14182;DHT22;7171;50.936;6.764;2023-02-28T14:36:30;6.80;98.60
14182;DHT22;7171;50.936;6.764;2023-02-28T14:39:00;6.80;96.00
14182;DHT22;7171;50.936;6.764;2023-02-28T14:41:30;6.90;98.60
14182;DHT22;7171;50.936;6.764;2023-02-28T14:44:03;6.90;99.90
14182;DHT22;7171;50.936;6.764;2023-02-28T15:26:33;7.40;95.40
14182;DHT22;7171;50.936;6.764;2023-02-28T15:29:03;7.50;95.70
14182;DHT22;7171;50.936;6.764;2023-02-28T15:31:34;7.50;95.80
14182;DHT22;7171;50.936;6.764;2023-02-28T15:34:03;7.50;95.60
14182;DHT22;7171;50.936;6.764;2023-02-28T15:36:33;7.50;95.80
14182;DHT22;7171;50.936;6.764;2023-02-28T15:39:03;7.50;95.70
14182;DHT22;7171;50.936;6.764;2023-02-28T15:41:44;7.50;95.40
14182;DHT22;7171;50.936;6.764;2023-02-28T15:44:24;7.50;95.50
14182;DHT22;7171;50.936;6.764;2023-02-28T15:47:00;7.50;95.70
14182;DHT22;7171;50.936;6.764;2023-02-28T15:49:29;7.50;95.80
14182;DHT22;7171;50.936;6.764;2023-02-28T15:51:59;7.50;95.60
14182;DHT22;7171;50.936;6.764;2023-02-28T15:54:29;7.40;95.40
14182;DHT22;7171;50.936;6.764;2023-02-28T15:56:59;7.40;95.20
14182;DHT22;7171;50.936;6.764;2023-02-28T15:59:29;7.40;95.10
14182;DHT22;7171;50.936;6.764;2023-02-28T16:02:14;7.40;95.00
14182;DHT22;7171;50.936;6.764;2023-02-28T16:05:00;7.50;95.20
14182;DHT22;7171;50.936;6.764;2023-02-28T16:07:27;7.50;95.10
14182;DHT22;7171;50.936;6.764;2023-02-28T16:09:54;7.60;95.10
14182;DHT22;7171;50.936;6.764;2023-02-28T16:12:25;7.70;95.10
14182;DHT22;7171;50.936;6.764;2023-02-28T16:14:53;7.70;95.10
14182;DHT22;7171;50.936;6.764;2023-02-28T16:17:23;7.70;95.00
14182;DHT22;7171;50.936;6.764;2023-02-28T16:19:50;7.80;95.00
14182;DHT22;7171;50.936;6.764;2023-02-28T16:22:17;7.70;94.90
14182;DHT22;7171;50.936;6.764;2023-02-28T16:24:44;7.60;95.00
14182;DHT22;7171;50.936;6.764;2023-02-28T16:27:17;7.50;94.90
14182;DHT22;7171;50.936;6.764;2023-02-28T16:29:45;7.40;94.80
14182;DHT22;7171;50.936;6.764;2023-02-28T16:32:14;7.30;94.90
14182;DHT22;7171;50.936;6.764;2023-02-28T16:34:43;7.20;94.90
14182;DHT22;7171;50.936;6.764;2023-02-28T16:37:13;7.10;94.80
14182;DHT22;7171;50.936;6.764;2023-02-28T16:39:40;7.10;94.90
14182;DHT22;7171;50.936;6.764;2023-02-28T16:42:12;7.00;95.00
14182;DHT22;7171;50.936;6.764;2023-02-28T16:44:41;6.90;95.00
14182;DHT22;7171;50.936;6.764;2023-02-28T16:47:10;6.90;95.10
14182;DHT22;7171;50.936;6.764;2023-02-28T16:49:37;6.80;95.10
14182;DHT22;7171;50.936;6.764;2023-02-28T16:52:06;6.80;95.00
14182;DHT22;7171;50.936;6.764;2023-02-28T16:54:32;6.70;95.00
14182;DHT22;7171;50.936;6.764;2023-02-28T16:56:59;6.70;95.10
14182;DHT22;7171;50.936;6.764;2023-02-28T16:59:27;6.70;95.10
14182;DHT22;7171;50.936;6.764;2023-02-28T17:01:55;6.60;95.10
14182;DHT22;7171;50.936;6.764;2023-02-28T17:04:23;6.60;95.10
14182;DHT22;7171;50.936;6.764;2023-02-28T17:06:49;6.50;95.10
14182;DHT22;7171;50.936;6.764;2023-02-28T17:09:20;6.50;95.20
14182;DHT22;7171;50.936;6.764;2023-02-28T17:11:47;6.50;95.20
14182;DHT22;7171;50.936;6.764;2023-02-28T17:14:14;6.40;95.10
14182;DHT22;7171;50.936;6.764;2023-02-28T17:16:42;6.40;95.20
14182;DHT22;7171;50.936;6.764;2023-02-28T17:19:12;6.40;95.20
14182;DHT22;7171;50.936;6.764;2023-02-28T17:21:39;6.30;95.30
14182;DHT22;7171;50.936;6.764;2023-02-28T17:24:09;6.30;95.20
14182;DHT22;7171;50.936;6.764;2023-02-28T17:26:39;6.20;95.20
14182;DHT22;7171;50.936;6.764;2023-02-28T17:29:12;6.10;95.20
14182;DHT22;7171;50.936;6.764;2023-02-28T17:31:40;6.10;95.20
14182;DHT22;7171;50.936;6.764;2023-02-28T17:34:06;6.00;95.20
14182;DHT22;7171;50.936;6.764;2023-02-28T17:36:34;5.90;95.20
14182;DHT22;7171;50.936;6.764;2023-02-28T17:39:02;5.90;95.30
14182;DHT22;7171;50.936;6.764;2023-02-28T17:41:29;5.80;95.30
14182;DHT22;7171;50.936;6.764;2023-02-28T17:56:18;5.70;94.80
14182;DHT22;7171;50.936;6.764;2023-02-28T17:58:45;5.50;95.10
14182;DHT22;7171;50.936;6.764;2023-02-28T18:01:13;5.40;95.30
14182;DHT22;7171;50.936;6.764;2023-02-28T18:03:40;5.40;95.40
14182;DHT22;7171;50.936;6.764;2023-02-28T18:06:09;5.20;95.50
14182;DHT22;7171;50.936;6.764;2023-02-28T18:08:38;5.20;95.60
14182;DHT22;7171;50.936;6.764;2023-02-28T18:11:05;5.10;95.80
14182;DHT22;7171;50.936;6.764;2023-02-28T18:13:31;5.10;95.90
14182;DHT22;7171;50.936;6.764;2023-02-28T18:15:58;5.00;96.00
14182;DHT22;7171;50.936;6.764;2023-02-28T18:18:26;5.00;96.20
14182;DHT22;7171;50.936;6.764;2023-02-28T18:20:53;4.90;96.20
14182;DHT22;7171;50.936;6.764;2023-02-28T18:23:20;4.80;96.30
14182;DHT22;7171;50.936;6.764;2023-02-28T18:25:46;4.80;96.40
14182;DHT22;7171;50.936;6.764;2023-02-28T18:28:13;4.80;96.50
14182;DHT22;7171;50.936;6.764;2023-02-28T18:30:40;4.70;96.60
14182;DHT22;7171;50.936;6.764;2023-02-28T18:33:06;4.70;96.70
14182;DHT22;7171;50.936;6.764;2023-02-28T18:35:34;4.70;96.80
14182;DHT22;7171;50.936;6.764;2023-02-28T18:38:03;4.70;96.70
14182;DHT22;7171;50.936;6.764;2023-02-28T18:40:31;4.60;96.80
14182;DHT22;7171;50.936;6.764;2023-02-28T18:42:58;4.60;97.00
14182;DHT22;7171;50.936;6.764;2023-02-28T18:45:25;4.60;97.00
14182;DHT22;7171;50.936;6.764;2023-02-28T18:47:51;4.50;97.10
14182;DHT22;7171;50.936;6.764;2023-02-28T18:50:18;4.50;97.10
14182;DHT22;7171;50.936;6.764;2023-02-28T18:52:46;4.50;97.10
14182;DHT22;7171;50.936;6.764;2023-02-28T18:55:13;4.40;97.10
14182;DHT22;7171;50.936;6.764;2023-02-28T18:57:44;4.40;97.20
14182;DHT22;7171;50.936;6.764;2023-02-28T19:00:12;4.40;97.30
14182;DHT22;7171;50.936;6.764;2023-02-28T19:02:39;4.40;97.40
14182;DHT22;7171;50.936;6.764;2023-02-28T19:05:06;4.30;97.70
14182;DHT22;7171;50.936;6.764;2023-02-28T19:07:34;4.30;97.50
14182;DHT22;7171;50.936;6.764;2023-02-28T19:10:02;4.30;97.40
14182;DHT22;7171;50.936;6.764;2023-02-28T19:12:32;4.30;97.50
14182;DHT22;7171;50.936;6.764;2023-02-28T19:14:59;4.30;97.60
14182;DHT22;7171;50.936;6.764;2023-02-28T19:17:25;4.20;97.50
14182;DHT22;7171;50.936;6.764;2023-02-28T19:19:52;4.20;97.50
14182;DHT22;7171;50.936;6.764;2023-02-28T19:22:19;4.20;97.50
14182;DHT22;7171;50.936;6.764;2023-02-28T19:24:46;4.20;97.50
14182;DHT22;7171;50.936;6.764;2023-02-28T19:27:14;4.10;97.50
14182;DHT22;7171;50.936;6.764;2023-02-28T19:29:41;4.10;97.60
14182;DHT22;7171;50.936;6.764;2023-02-28T19:32:08;4.10;97.60
14182;DHT22;7171;50.936;6.764;2023-02-28T19:34:35;4.10;97.70
14182;DHT22;7171;50.936;6.764;2023-02-28T19:37:01;4.10;97.70
14182;DHT22;7171;50.936;6.764;2023-02-28T19:39:28;4.00;97.60
14182;DHT22;7171;50.936;6.764;2023-02-28T19:42:05;4.00;97.60
14182;DHT22;7171;50.936;6.764;2023-02-28T19:44:33;4.00;97.80
14182;DHT22;7171;50.936;6.764;2023-02-28T19:47:00;4.00;97.80
14182;DHT22;7171;50.936;6.764;2023-02-28T19:49:27;4.00;97.80
14182;DHT22;7171;50.936;6.764;2023-02-28T19:51:54;3.90;97.90
14182;DHT22;7171;50.936;6.764;2023-02-28T19:54:20;3.90;97.80
14182;DHT22;7171;50.936;6.764;2023-02-28T19:56:47;3.90;97.90
14182;DHT22;7171;50.936;6.764;2023-02-28T19:59:14;3.90;98.00
14182;DHT22;7171;50.936;6.764;2023-02-28T20:01:42;3.80;97.90
14182;DHT22;7171;50.936;6.764;2023-02-28T20:04:09;3.80;98.00
14182;DHT22;7171;50.936;6.764;2023-02-28T20:06:36;3.80;98.10
14182;DHT22;7171;50.936;6.764;2023-02-28T20:09:03;3.80;98.10
14182;DHT22;7171;50.936;6.764;2023-02-28T20:11:30;3.80;98.10
14182;DHT22;7171;50.936;6.764;2023-02-28T20:13:57;3.80;98.20
14182;DHT22;7171;50.936;6.764;2023-02-28T20:16:24;3.80;98.20
14182;DHT22;7171;50.936;6.764;2023-02-28T20:18:54;3.80;98.20
14182;DHT22;7171;50.936;6.764;2023-02-28T20:21:21;3.90;98.30
14182;DHT22;7171;50.936;6.764;2023-02-28T20:23:48;3.90;98.30
14182;DHT22;7171;50.936;6.764;2023-02-28T20:26:15;3.90;98.40
14182;DHT22;7171;50.936;6.764;2023-02-28T20:28:44;3.90;98.40
14182;DHT22;7171;50.936;6.764;2023-02-28T20:31:11;3.90;98.40
14182;DHT22;7171;50.936;6.764;2023-02-28T20:33:38;3.90;98.30
14182;DHT22;7171;50.936;6.764;2023-02-28T20:36:06;4.00;98.40
14182;DHT22;7171;50.936;6.764;2023-02-28T20:38:34;4.00;98.40
14182;DHT22;7171;50.936;6.764;2023-02-28T20:41:02;3.90;98.30
14182;DHT22;7171;50.936;6.764;2023-02-28T20:43:29;3.90;98.30
14182;DHT22;7171;50.936;6.764;2023-02-28T20:45:57;3.90;98.30
14182;DHT22;7171;50.936;6.764;2023-02-28T20:48:26;3.90;98.30
14182;DHT22;7171;50.936;6.764;2023-02-28T20:50:54;3.90;98.30
14182;DHT22;7171;50.936;6.764;2023-02-28T20:53:24;3.90;98.30
14182;DHT22;7171;50.936;6.764;2023-02-28T20:55:55;3.90;98.30
14182;DHT22;7171;50.936;6.764;2023-02-28T20:58:24;3.80;98.30